Hollister, Florida
Current Conditions -  °F | °C
As of 2:53 PM on Thursday 30 Oct 2014 (Local Time) from KGNV Reporting Station
Broken Clouds Broken Clouds  
Wind Chill: 77°   Ceiling: 11000
Heat Index: 79°   Visibility: 10mi
Dew Point: 66°   Wind: 6mph
Humidity: 69%   Direction: 320°NW
Pressure: 29.91"   Gusts: NA
Location:  29.62°N, 81.81°W
Report Text: KGNV 301853Z 32005KT 10SM SCT085 BKN110 25/19 A2991 RMK AO2 SLP126 T02500189
Loading
Personal Weather Stations






























Interactive Weather Map
Tropical Storm Tracking
New forecast layout! Learn more

10-Day Weather Forecast

Advertisements
Track Severe Weather on mobile